createdAt,value
2019-05-09T00:00:10.780Z,9.68
2019-05-09T00:01:10.752Z,9.67
2019-05-09T00:02:10.814Z,9.62
2019-05-09T00:03:10.682Z,9.60
2019-05-09T00:04:10.714Z,9.56
2019-05-09T00:05:10.616Z,9.62
2019-05-09T00:06:10.644Z,9.63
2019-05-09T00:07:10.572Z,9.67
2019-05-09T00:08:10.530Z,9.63
2019-05-09T00:09:10.491Z,9.60
2019-05-09T00:10:10.559Z,9.78
2019-05-09T00:11:10.449Z,9.59
2019-05-09T00:12:10.453Z,9.70
2019-05-09T00:13:10.375Z,9.70
2019-05-09T00:14:10.410Z,9.71
2019-05-09T00:15:10.317Z,9.73
2019-05-09T00:16:10.389Z,9.75
2019-05-09T00:17:10.258Z,9.71
2019-05-09T00:18:10.298Z,9.68
2019-05-09T00:19:10.307Z,9.80
2019-05-09T00:20:10.194Z,9.70
2019-05-09T00:21:10.242Z,9.80
2019-05-09T00:22:10.114Z,9.73
2019-05-09T00:23:10.156Z,9.77
2019-05-09T00:24:10.067Z,9.73
2019-05-09T00:25:10.041Z,9.67
2019-05-09T00:26:09.987Z,9.80
2019-05-09T00:27:10.045Z,9.75
2019-05-09T00:28:09.924Z,9.70
2019-05-09T00:29:09.980Z,9.75
2019-05-09T00:30:09.849Z,9.71
2019-05-09T00:31:09.845Z,9.74
2019-05-09T00:32:09.810Z,9.68
2019-05-09T00:33:09.886Z,9.73
2019-05-09T00:34:09.757Z,9.74
2019-05-09T00:35:09.791Z,9.75
2019-05-09T00:36:09.698Z,9.80
2019-05-09T00:37:09.691Z,9.73
2019-05-09T00:38:09.628Z,9.71
2019-05-09T00:39:09.637Z,9.63
2019-05-09T00:40:09.556Z,9.71
2019-05-09T00:41:09.646Z,9.71
2019-05-09T00:42:09.528Z,9.71
2019-05-09T00:43:09.545Z,9.77
2019-05-09T00:44:09.428Z,9.73
2019-05-09T00:45:09.453Z,9.70
2019-05-09T00:46:09.390Z,9.68
2019-05-09T00:47:10.412Z,9.67
2019-05-09T00:48:09.332Z,9.70
2019-05-09T00:49:11.346Z,9.73
2019-05-09T00:50:09.268Z,9.65
2019-05-09T00:51:10.297Z,9.67
2019-05-09T00:52:09.204Z,9.77
2019-05-09T00:53:16.773Z,9.75
2019-05-09T00:54:09.149Z,9.71
2019-05-09T00:55:16.814Z,9.73
2019-05-09T00:56:09.105Z,9.73
2019-05-09T00:57:11.170Z,9.80
2019-05-09T00:58:09.033Z,9.68
2019-05-09T00:59:09.065Z,9.73
2019-05-09T01:00:08.951Z,9.67
2019-05-09T01:01:09.048Z,9.68
2019-05-09T01:02:08.917Z,9.75
2019-05-09T01:03:08.955Z,9.68
2019-05-09T01:04:08.844Z,9.73
2019-05-09T01:05:08.856Z,9.71
2019-05-09T01:06:08.792Z,9.65
2019-05-09T01:07:09.826Z,9.62
2019-05-09T01:08:08.740Z,9.70
2019-05-09T01:09:08.776Z,9.63
2019-05-09T01:10:08.673Z,9.62
2019-05-09T01:11:12.394Z,9.71
2019-05-09T01:12:08.613Z,9.59
2019-05-09T01:13:08.612Z,9.59
2019-05-09T01:14:08.566Z,9.59
2019-05-09T01:15:08.706Z,9.60
2019-05-09T01:16:08.501Z,9.65
2019-05-09T01:17:08.531Z,9.67
2019-05-09T01:18:08.423Z,9.70
2019-05-09T01:19:08.445Z,9.65
2019-05-09T01:20:08.357Z,9.60
2019-05-09T01:21:08.348Z,9.59
2019-05-09T01:22:08.315Z,9.58
2019-05-09T01:23:08.347Z,9.63
2019-05-09T01:24:08.242Z,9.60
2019-05-09T01:25:08.279Z,9.65
2019-05-09T01:26:08.174Z,9.60
2019-05-09T01:27:08.175Z,9.58
2019-05-09T01:28:08.127Z,9.65
2019-05-09T01:29:08.197Z,9.62
2019-05-09T01:30:08.065Z,9.59
2019-05-09T01:31:08.114Z,9.60
2019-05-09T01:32:07.998Z,9.59
2019-05-09T01:33:10.092Z,9.67
2019-05-09T01:34:07.940Z,9.63
2019-05-09T01:35:10.017Z,9.65
2019-05-09T01:36:07.911Z,9.65
2019-05-09T01:37:15.844Z,9.59
2019-05-09T01:38:07.834Z,9.59
2019-05-09T01:40:07.748Z,9.67
2019-05-09T01:41:07.858Z,9.67
2019-05-09T01:42:07.709Z,9.68
2019-05-09T01:43:07.778Z,9.71
2019-05-09T01:44:07.656Z,9.65
2019-05-09T01:45:07.728Z,9.71
2019-05-09T01:46:07.570Z,9.62
2019-05-09T01:47:07.620Z,9.62
2019-05-09T01:48:07.517Z,9.65
2019-05-09T01:49:07.523Z,9.63
2019-05-09T01:50:07.479Z,9.62
2019-05-09T01:51:09.502Z,9.63
2019-05-09T01:52:07.405Z,9.60
2019-05-09T01:53:07.436Z,9.65
2019-05-09T01:54:07.340Z,9.58
2019-05-09T01:55:07.338Z,9.63
2019-05-09T01:56:07.282Z,9.60
2019-05-09T01:57:07.345Z,9.55
2019-05-09T01:58:07.226Z,9.58
2019-05-09T01:59:07.260Z,9.55
2019-05-09T02:00:07.166Z,9.59
2019-05-09T02:01:13.835Z,9.50
2019-05-09T02:02:08.727Z,9.52
2019-05-09T02:03:14.018Z,9.58
2019-05-09T02:04:07.037Z,9.40
2019-05-09T02:05:13.749Z,9.45
2019-05-09T02:06:06.980Z,9.49
2019-05-09T02:07:09.098Z,9.44
2019-05-09T02:08:06.926Z,9.37
2019-05-09T02:09:06.945Z,9.35
2019-05-09T02:10:06.853Z,9.40
2019-05-09T02:11:07.851Z,9.37
2019-05-09T02:12:06.806Z,9.32
2019-05-09T02:13:06.836Z,9.30
2019-05-09T02:14:06.743Z,9.31
2019-05-09T02:15:06.754Z,9.27
2019-05-09T02:16:06.682Z,9.27
2019-05-09T02:17:06.659Z,9.16
2019-05-09T02:18:06.605Z,9.20
2019-05-09T02:19:08.632Z,9.24
2019-05-09T02:20:06.545Z,9.19
2019-05-09T02:21:06.585Z,9.13
2019-05-09T02:22:06.485Z,9.13
2019-05-09T02:23:14.271Z,9.15
2019-05-09T02:24:06.430Z,9.08
2019-05-09T02:25:06.509Z,9.03
2019-05-09T02:26:06.377Z,9.01
2019-05-09T02:27:07.434Z,9.00
2019-05-09T02:28:06.311Z,8.97
2019-05-09T02:29:06.346Z,8.96
2019-05-09T02:30:06.315Z,8.91
2019-05-09T02:31:08.285Z,8.93
2019-05-09T02:32:06.198Z,8.85
2019-05-09T02:33:06.254Z,8.88
2019-05-09T02:34:06.139Z,8.88
2019-05-09T02:35:08.222Z,8.79
2019-05-09T02:36:09.499Z,8.89
2019-05-09T02:37:12.827Z,8.85
2019-05-09T02:38:09.174Z,8.80
2019-05-09T02:39:09.045Z,8.78
2019-05-09T02:40:09.215Z,8.70
2019-05-09T02:41:08.523Z,8.61
2019-05-09T02:42:10.695Z,8.61
2019-05-09T02:43:09.888Z,8.55
2019-05-09T02:44:09.013Z,8.65
2019-05-09T02:45:08.245Z,8.64
2019-05-09T02:46:09.422Z,8.63
2019-05-09T02:48:05.722Z,8.54
2019-05-09T02:49:28.713Z,8.50
2019-05-09T02:50:08.579Z,8.47
2019-05-09T02:51:14.355Z,8.50
2019-05-09T02:52:08.588Z,8.54
2019-05-09T02:53:08.213Z,8.52
2019-05-09T02:54:05.529Z,8.43
2019-05-09T02:55:05.574Z,8.47
2019-05-09T02:56:05.461Z,8.49
2019-05-09T02:57:09.220Z,8.40
2019-05-09T02:58:08.115Z,8.36
2019-05-09T02:59:05.402Z,8.34
2019-05-09T03:00:08.320Z,8.36
2019-05-09T03:01:08.237Z,8.31
2019-05-09T03:02:05.299Z,8.34
2019-05-09T03:03:12.289Z,8.32
2019-05-09T03:04:08.199Z,8.29
2019-05-09T03:05:05.260Z,8.29
2019-05-09T03:06:05.162Z,8.29
2019-05-09T03:07:20.812Z,8.32
2019-05-09T03:08:05.098Z,8.31
2019-05-09T03:09:08.923Z,8.28
2019-05-09T03:10:05.042Z,8.13
2019-05-09T03:11:09.863Z,8.28
2019-05-09T03:12:21.311Z,8.21
2019-05-09T03:13:08.479Z,8.25
2019-05-09T03:14:09.184Z,8.28
2019-05-09T03:15:04.909Z,8.25
2019-05-09T03:16:08.487Z,8.18
2019-05-09T03:17:04.830Z,8.21
2019-05-09T03:18:08.561Z,8.17
2019-05-09T03:19:04.765Z,8.18
2019-05-09T03:20:09.358Z,8.20
2019-05-09T03:21:04.715Z,8.09
2019-05-09T03:22:08.602Z,8.07
2019-05-09T03:23:04.652Z,8.07
2019-05-09T03:24:04.642Z,8.09
2019-05-09T03:25:04.595Z,8.02
2019-05-09T03:26:04.664Z,8.03
2019-05-09T03:27:04.532Z,8.00
2019-05-09T03:28:04.587Z,8.06
2019-05-09T03:29:04.466Z,8.02
2019-05-09T03:30:04.471Z,7.99
2019-05-09T03:31:04.423Z,7.96
2019-05-09T03:32:13.298Z,8.00
2019-05-09T03:33:04.375Z,7.99
2019-05-09T03:34:09.491Z,8.07
2019-05-09T03:35:04.291Z,7.89
2019-05-09T03:36:07.610Z,7.92
2019-05-09T03:37:04.234Z,7.94
2019-05-09T03:38:04.228Z,7.99
2019-05-09T03:39:04.180Z,7.96
2019-05-09T03:40:05.145Z,7.86
2019-05-09T03:41:04.109Z,7.94
2019-05-09T03:42:04.146Z,7.91
2019-05-09T03:43:04.049Z,7.88
2019-05-09T03:44:04.057Z,7.88
2019-05-09T03:45:03.980Z,7.89
2019-05-09T03:46:03.967Z,7.86
2019-05-09T03:47:08.268Z,7.81
2019-05-09T03:48:03.893Z,7.76
2019-05-09T03:49:11.883Z,7.77
2019-05-09T03:50:03.832Z,7.81
2019-05-09T03:51:03.879Z,7.77
2019-05-09T03:52:03.781Z,7.77
2019-05-09T03:53:03.808Z,7.79
2019-05-09T03:54:03.719Z,7.70
2019-05-09T03:55:04.727Z,7.81
2019-05-09T03:56:03.650Z,7.71
2019-05-09T03:57:03.742Z,7.82
2019-05-09T03:58:03.578Z,7.67
2019-05-09T03:59:03.640Z,7.76
2019-05-09T04:00:03.544Z,7.67
2019-05-09T04:01:03.552Z,7.73
2019-05-09T04:02:03.467Z,7.71
2019-05-09T04:03:03.484Z,7.67
2019-05-09T04:04:03.404Z,7.67
2019-05-09T04:05:04.411Z,7.60
2019-05-09T04:06:03.355Z,7.60
2019-05-09T04:07:03.450Z,7.62
2019-05-09T04:08:03.282Z,7.66
2019-05-09T04:09:03.298Z,7.55
2019-05-09T04:10:03.226Z,7.63
2019-05-09T04:11:03.320Z,7.51
2019-05-09T04:12:03.136Z,7.52
2019-05-09T04:13:03.221Z,7.50
2019-05-09T04:14:03.074Z,7.52
2019-05-09T04:15:03.112Z,7.51
2019-05-09T04:16:03.047Z,7.48
2019-05-09T04:17:03.055Z,7.52
2019-05-09T04:18:02.963Z,7.45
2019-05-09T04:19:03.966Z,7.47
2019-05-09T04:20:02.928Z,7.44
2019-05-09T04:21:02.958Z,7.47
2019-05-09T04:22:02.891Z,7.50
2019-05-09T04:23:02.876Z,7.44
2019-05-09T04:24:02.821Z,7.51
2019-05-09T04:25:02.784Z,7.47
2019-05-09T04:26:02.736Z,7.37
2019-05-09T04:27:02.832Z,7.42
2019-05-09T04:28:02.687Z,7.47
2019-05-09T04:29:03.725Z,7.48
2019-05-09T04:30:05.952Z,7.47
2019-05-09T04:31:02.587Z,7.47
2019-05-09T04:32:02.559Z,7.42
2019-05-09T04:33:02.615Z,7.47
2019-05-09T04:34:02.503Z,7.52
2019-05-09T04:35:02.624Z,7.47
2019-05-09T04:36:02.422Z,7.48
2019-05-09T04:37:02.440Z,7.51
2019-05-09T04:38:02.376Z,7.52
2019-05-09T04:39:02.362Z,7.50
2019-05-09T04:40:03.524Z,7.47
2019-05-09T04:41:03.289Z,7.54
2019-05-09T04:42:05.385Z,7.55
2019-05-09T04:43:14.022Z,7.51
2019-05-09T04:44:05.032Z,7.58
2019-05-09T04:45:03.536Z,7.57
2019-05-09T04:46:02.125Z,7.66
2019-05-09T04:47:03.514Z,7.60
2019-05-09T04:48:02.055Z,7.69
2019-05-09T04:49:02.743Z,7.70
2019-05-09T04:50:02.013Z,7.73
2019-05-09T04:51:02.023Z,7.77
2019-05-09T04:52:01.973Z,7.82
2019-05-09T04:53:01.919Z,7.84
2019-05-09T04:54:01.895Z,7.81
2019-05-09T04:55:01.946Z,7.81
2019-05-09T04:56:01.828Z,7.89
2019-05-09T04:57:01.883Z,7.94
2019-05-09T04:58:01.778Z,7.96
2019-05-09T04:59:03.836Z,8.07
2019-05-09T05:00:01.725Z,8.00
2019-05-09T05:01:01.780Z,8.12
2019-05-09T05:02:01.637Z,8.22
2019-05-09T05:03:01.681Z,8.18
2019-05-09T05:04:01.574Z,8.31
2019-05-09T05:05:01.567Z,8.25
2019-05-09T05:06:01.516Z,8.25
2019-05-09T05:07:01.526Z,8.28
2019-05-09T05:08:01.453Z,8.24
2019-05-09T05:09:01.540Z,8.40
2019-05-09T05:10:01.394Z,8.34
2019-05-09T05:11:01.453Z,8.39
2019-05-09T05:12:01.329Z,8.57
2019-05-09T05:13:01.303Z,8.49
2019-05-09T05:14:01.270Z,8.49
2019-05-09T05:15:01.305Z,8.54
2019-05-09T05:16:01.228Z,8.63
2019-05-09T05:17:07.496Z,8.68
2019-05-09T05:18:01.147Z,8.65
2019-05-09T05:19:01.182Z,8.68
2019-05-09T05:20:01.083Z,8.73
2019-05-09T05:21:01.091Z,8.71
2019-05-09T05:22:01.018Z,8.80
2019-05-09T05:23:01.106Z,8.83
2019-05-09T05:24:00.964Z,8.82
2019-05-09T05:25:01.033Z,8.85
2019-05-09T05:26:00.933Z,8.91
2019-05-09T05:27:02.972Z,8.83
2019-05-09T05:28:00.835Z,8.97
2019-05-09T05:29:00.852Z,9.01
2019-05-09T05:30:00.781Z,8.98
2019-05-09T05:31:01.776Z,9.03
2019-05-09T05:32:00.720Z,9.04
2019-05-09T05:33:00.865Z,9.08
2019-05-09T05:34:00.754Z,9.04
2019-05-09T05:35:01.689Z,9.19
2019-05-09T05:36:00.608Z,9.16
2019-05-09T05:37:00.675Z,9.22
2019-05-09T05:38:00.543Z,9.20
2019-05-09T05:39:00.600Z,9.26
2019-05-09T05:40:00.473Z,9.17
2019-05-09T05:41:00.504Z,9.26
2019-05-09T05:42:00.445Z,9.23
2019-05-09T05:43:01.463Z,9.26
2019-05-09T05:44:00.356Z,9.26
2019-05-09T05:45:00.419Z,9.32
2019-05-09T05:46:00.298Z,9.23
2019-05-09T05:47:00.330Z,9.24
2019-05-09T05:48:00.224Z,9.37
2019-05-09T05:49:00.269Z,9.26
2019-05-09T05:50:00.172Z,9.35
2019-05-09T05:51:00.154Z,9.37
2019-05-09T05:52:00.116Z,9.40
2019-05-09T05:53:01.210Z,9.49
2019-05-09T05:54:01.445Z,9.37
2019-05-09T05:55:00.081Z,9.44
2019-05-09T05:55:59.982Z,9.45
2019-05-09T05:56:59.996Z,9.53
2019-05-09T05:57:59.926Z,9.58
2019-05-09T05:59:01.081Z,9.58
2019-05-09T05:59:59.875Z,9.55
2019-05-09T06:00:59.945Z,9.65
2019-05-09T06:01:59.814Z,9.59
2019-05-09T06:03:01.797Z,9.59
2019-05-09T06:03:59.760Z,9.63
2019-05-09T06:05:00.792Z,9.62
2019-05-09T06:05:59.684Z,9.67
2019-05-09T06:06:59.687Z,9.71
2019-05-09T06:07:59.639Z,9.74
2019-05-09T06:08:59.596Z,9.80
2019-05-09T06:09:59.619Z,9.75
2019-05-09T06:10:59.524Z,9.81
2019-05-09T06:11:59.505Z,9.85
2019-05-09T06:13:00.535Z,9.91
2019-05-09T06:14:08.056Z,9.78
2019-05-09T06:14:59.418Z,9.89
2019-05-09T06:15:59.430Z,9.88
2019-05-09T06:16:59.354Z,9.89
2019-05-09T06:18:00.378Z,9.98
2019-05-09T06:19:00.413Z,10.01
2019-05-09T06:19:59.260Z,10.07
2019-05-09T06:21:00.288Z,10.10
2019-05-09T06:21:59.209Z,10.14
2019-05-09T06:23:05.833Z,10.13
2019-05-09T06:23:59.124Z,10.17
2019-05-09T06:24:59.204Z,10.13
2019-05-09T06:25:59.084Z,10.20
2019-05-09T06:26:59.121Z,10.26
2019-05-09T06:27:59.027Z,10.35
2019-05-09T06:28:59.012Z,10.32
2019-05-09T06:29:59.103Z,10.34
2019-05-09T06:30:58.917Z,10.38
2019-05-09T06:31:58.894Z,10.43
2019-05-09T06:32:58.927Z,10.42
2019-05-09T06:34:08.136Z,10.39
2019-05-09T06:34:58.811Z,10.44
2019-05-09T06:36:23.445Z,10.35
2019-05-09T06:36:59.809Z,10.52
2019-05-09T06:38:07.696Z,10.51
2019-05-09T06:38:59.058Z,10.46
2019-05-09T06:39:59.812Z,10.52
2019-05-09T06:40:58.618Z,10.65
2019-05-09T06:42:05.446Z,10.72
2019-05-09T06:43:00.012Z,10.75
2019-05-09T06:44:13.554Z,10.76
2019-05-09T06:44:58.566Z,10.81
2019-05-09T06:46:00.566Z,10.83
2019-05-09T06:46:58.756Z,10.93
2019-05-09T06:48:28.379Z,10.91
2019-05-09T06:49:20.497Z,10.94
2019-05-09T06:49:58.375Z,10.94
2019-05-09T06:50:59.490Z,10.83
2019-05-09T06:51:58.314Z,10.98
2019-05-09T06:53:58.567Z,10.95
2019-05-09T06:55:00.319Z,11.08
2019-05-09T06:55:58.272Z,11.05
2019-05-09T06:57:58.458Z,11.20
2019-05-09T06:59:07.634Z,11.17
2019-05-09T06:59:58.178Z,11.28
2019-05-09T07:01:07.662Z,11.24
2019-05-09T07:01:57.997Z,11.38
2019-05-09T07:03:57.939Z,11.51
2019-05-09T07:04:59.066Z,11.48
2019-05-09T07:05:57.876Z,11.53
2019-05-09T07:07:07.781Z,11.57
2019-05-09T07:07:57.833Z,11.62
2019-05-09T07:09:08.227Z,11.74
2019-05-09T07:09:58.597Z,11.77
2019-05-09T07:11:13.325Z,11.79
2019-05-09T07:11:58.648Z,11.74
2019-05-09T07:13:04.808Z,11.75
2019-05-09T07:13:57.960Z,11.78
2019-05-09T07:15:14.498Z,11.78
2019-05-09T07:15:58.535Z,11.82
2019-05-09T07:17:13.470Z,11.90
2019-05-09T07:17:57.653Z,12.01
2019-05-09T07:18:57.992Z,12.01
2019-05-09T07:19:59.026Z,12.08
2019-05-09T07:21:04.393Z,12.03
2019-05-09T07:21:57.988Z,12.13
2019-05-09T07:23:19.470Z,12.23
2019-05-09T07:23:58.295Z,12.26
2019-05-09T07:25:05.989Z,12.23
2019-05-09T07:26:04.000Z,12.29
2019-05-09T07:26:58.387Z,12.36
2019-05-09T07:28:04.105Z,12.36
2019-05-09T07:28:59.414Z,12.43
2019-05-09T07:30:57.318Z,12.52
2019-05-09T07:32:03.974Z,12.62
2019-05-09T07:32:58.009Z,12.70
2019-05-09T07:33:58.694Z,12.71
2019-05-09T07:34:57.903Z,12.85
2019-05-09T07:36:13.909Z,12.84
2019-05-09T07:36:58.111Z,12.85
2019-05-09T07:37:59.092Z,12.91
2019-05-09T07:38:58.296Z,12.91
2019-05-09T07:39:57.754Z,13.03
2019-05-09T07:40:58.033Z,13.06
2019-05-09T07:41:58.353Z,13.10
2019-05-09T07:42:58.395Z,13.07
2019-05-09T07:44:04.584Z,13.07
2019-05-09T07:44:59.207Z,13.09
2019-05-09T07:45:58.080Z,13.12
2019-05-09T07:46:58.054Z,13.13
2019-05-09T07:47:58.360Z,13.22
2019-05-09T07:48:57.793Z,13.16
2019-05-09T07:49:58.670Z,13.17
2019-05-09T07:50:59.573Z,13.17
2019-05-09T07:51:58.443Z,13.13
2019-05-09T07:52:58.126Z,13.19
2019-05-09T07:53:58.828Z,13.27
2019-05-09T07:54:57.995Z,13.29
2019-05-09T07:55:58.164Z,13.36
2019-05-09T07:56:57.981Z,13.39
2019-05-09T07:57:59.124Z,13.46
2019-05-09T07:58:58.279Z,13.51
2019-05-09T07:59:58.373Z,13.55
2019-05-09T08:01:00.753Z,13.53
2019-05-09T08:01:58.065Z,13.55
2019-05-09T08:02:58.094Z,13.63
2019-05-09T08:03:58.395Z,13.71
2019-05-09T08:04:57.890Z,13.71
2019-05-09T08:05:57.977Z,13.68
2019-05-09T08:06:57.668Z,13.75
2019-05-09T08:07:58.403Z,13.80
2019-05-09T08:08:58.185Z,13.83
2019-05-09T08:09:57.922Z,13.81
2019-05-09T08:10:58.276Z,13.84
2019-05-09T08:11:58.530Z,13.83
2019-05-09T08:12:58.308Z,13.91
2019-05-09T08:13:57.538Z,13.93
2019-05-09T08:15:10.385Z,13.91
2019-05-09T08:15:55.774Z,13.96
2019-05-09T08:16:57.837Z,14.04
2019-05-09T08:17:55.750Z,14.01
2019-05-09T08:18:58.053Z,14.08
2019-05-09T08:19:57.650Z,13.91
2019-05-09T08:20:57.786Z,13.94
2019-05-09T08:21:57.568Z,13.91
2019-05-09T08:22:58.608Z,14.08
2019-05-09T08:23:57.675Z,13.98
2019-05-09T08:24:57.593Z,13.99
2019-05-09T08:25:57.715Z,13.99
2019-05-09T08:26:58.002Z,13.99
2019-05-09T08:27:55.435Z,14.01
2019-05-09T08:28:58.141Z,14.04
2019-05-09T08:29:55.499Z,13.94
2019-05-09T08:30:55.400Z,13.99
2019-05-09T08:31:55.382Z,14.08
2019-05-09T08:32:55.433Z,13.93
2019-05-09T08:33:55.263Z,13.99
2019-05-09T08:34:57.484Z,14.09
2019-05-09T08:35:55.167Z,14.08
2019-05-09T08:36:55.227Z,14.04
2019-05-09T08:37:55.153Z,14.05
2019-05-09T08:38:55.129Z,14.01
2019-05-09T08:39:57.603Z,14.02
2019-05-09T08:40:55.011Z,14.02
2019-05-09T08:41:59.190Z,14.12
2019-05-09T08:42:54.950Z,14.12
2019-05-09T08:43:57.399Z,14.39
2019-05-09T08:44:54.909Z,14.44
2019-05-09T08:45:54.947Z,14.57
2019-05-09T08:46:54.825Z,14.63
2019-05-09T08:47:54.810Z,14.85
2019-05-09T08:48:57.382Z,14.90
2019-05-09T08:49:54.770Z,15.04
2019-05-09T08:50:54.748Z,14.95
2019-05-09T08:52:09.053Z,15.01
2019-05-09T08:52:54.663Z,15.01
2019-05-09T08:53:54.632Z,15.07
2019-05-09T08:54:54.619Z,15.23
2019-05-09T08:55:54.590Z,15.15
2019-05-09T08:56:54.540Z,15.34
2019-05-09T08:57:54.687Z,15.46
2019-05-09T08:58:58.041Z,15.41
2019-05-09T08:59:54.618Z,15.59
2019-05-09T09:00:54.425Z,15.66
2019-05-09T09:02:12.243Z,15.77
2019-05-09T09:02:54.362Z,15.81
2019-05-09T09:03:54.424Z,15.77
2019-05-09T09:04:54.330Z,15.71
2019-05-09T09:05:54.452Z,15.68
2019-05-09T09:06:54.240Z,15.73
2019-05-09T09:07:54.365Z,15.71
2019-05-09T09:08:54.179Z,15.76
2019-05-09T09:09:54.185Z,15.78
2019-05-09T09:10:54.132Z,15.77
2019-05-09T09:11:54.195Z,15.92
2019-05-09T09:12:54.058Z,15.88
2019-05-09T09:13:57.416Z,15.77
2019-05-09T09:14:53.989Z,15.71
2019-05-09T09:16:12.211Z,15.66
2019-05-09T09:16:53.947Z,15.62
2019-05-09T09:17:54.080Z,15.68
2019-05-09T09:18:53.883Z,15.80
2019-05-09T09:19:53.951Z,15.95
2019-05-09T09:20:53.832Z,16.16
2019-05-09T09:21:55.586Z,16.29
2019-05-09T09:22:53.770Z,16.37
2019-05-09T09:23:53.754Z,16.42
2019-05-09T09:24:53.714Z,16.54
2019-05-09T09:25:54.705Z,16.62
2019-05-09T09:26:53.651Z,16.75
2019-05-09T09:27:53.685Z,16.70
2019-05-09T09:28:53.576Z,16.72
2019-05-09T09:29:53.611Z,16.75
2019-05-09T09:30:53.534Z,16.77
2019-05-09T09:31:53.594Z,16.84
2019-05-09T09:32:53.474Z,16.92
2019-05-09T09:33:53.561Z,16.91
2019-05-09T09:34:53.420Z,16.96
2019-05-09T09:35:53.426Z,17.07
2019-05-09T09:36:53.348Z,16.95
2019-05-09T09:37:57.770Z,17.05
2019-05-09T09:38:53.314Z,17.00
2019-05-09T09:39:53.369Z,16.98
2019-05-09T09:40:53.255Z,16.90
2019-05-09T09:41:53.250Z,16.84
2019-05-09T09:42:53.188Z,16.90
2019-05-09T09:43:53.167Z,16.78
2019-05-09T09:44:53.128Z,16.67
2019-05-09T09:46:10.081Z,16.62
2019-05-09T09:46:53.083Z,16.70
2019-05-09T09:47:53.091Z,16.73
2019-05-09T09:48:53.015Z,16.87
2019-05-09T09:49:55.215Z,16.81
2019-05-09T09:50:52.954Z,16.85
2019-05-09T09:51:53.018Z,16.96
2019-05-09T09:52:52.868Z,16.96
2019-05-09T09:53:52.890Z,17.05
2019-05-09T09:54:52.824Z,17.03
2019-05-09T09:55:52.841Z,16.87
2019-05-09T09:56:52.784Z,17.09
2019-05-09T09:57:52.857Z,17.24
2019-05-09T09:58:52.733Z,17.30
2019-05-09T09:59:52.788Z,17.35
2019-05-09T10:00:52.667Z,17.43
2019-05-09T10:01:52.669Z,17.40
2019-05-09T10:02:52.612Z,17.55
2019-05-09T10:03:52.689Z,17.80
2019-05-09T10:04:52.544Z,17.80
2019-05-09T10:05:52.591Z,17.99
2019-05-09T10:06:53.210Z,18.11
2019-05-09T10:07:59.509Z,18.16
2019-05-09T10:08:52.462Z,18.32
2019-05-09T10:09:52.511Z,18.29
2019-05-09T10:10:52.372Z,18.17
2019-05-09T10:11:52.414Z,18.14
2019-05-09T10:12:52.326Z,18.23
2019-05-09T10:13:52.343Z,18.28
2019-05-09T10:14:52.284Z,18.32
2019-05-09T10:15:52.253Z,18.14
2019-05-09T10:16:52.203Z,18.29
2019-05-09T10:17:52.257Z,18.47
2019-05-09T10:18:52.136Z,18.50
2019-05-09T10:19:52.180Z,18.51
2019-05-09T10:20:52.075Z,18.51
2019-05-09T10:21:52.080Z,18.35
2019-05-09T10:22:59.562Z,18.23
2019-05-09T10:23:52.084Z,18.28
2019-05-09T10:24:51.966Z,18.36
2019-05-09T10:25:52.013Z,18.29
2019-05-09T10:26:51.910Z,18.35
2019-05-09T10:27:51.926Z,18.46
2019-05-09T10:28:51.854Z,18.47
2019-05-09T10:29:51.955Z,18.49
2019-05-09T10:30:51.829Z,18.46
2019-05-09T10:31:51.831Z,18.39
2019-05-09T10:32:51.740Z,18.42
2019-05-09T10:33:53.807Z,18.44
2019-05-09T10:34:52.369Z,18.42
2019-05-09T10:35:51.847Z,18.50
2019-05-09T10:36:51.633Z,18.56
2019-05-09T10:37:51.702Z,18.56
2019-05-09T10:38:51.561Z,18.74
2019-05-09T10:39:51.578Z,18.71
2019-05-09T10:40:53.431Z,18.71
2019-05-09T10:41:51.600Z,18.71
2019-05-09T10:42:51.462Z,18.72
2019-05-09T10:43:51.527Z,18.89
2019-05-09T10:44:51.416Z,18.84
2019-05-09T10:45:51.432Z,18.89
2019-05-09T10:46:57.121Z,18.79
2019-05-09T10:47:51.321Z,18.78
2019-05-09T10:48:51.336Z,18.94
2019-05-09T10:49:51.258Z,18.99
2019-05-09T10:50:54.162Z,19.16
2019-05-09T10:51:51.200Z,19.17
2019-05-09T10:52:51.251Z,19.15
2019-05-09T10:53:51.151Z,19.01
2019-05-09T10:54:51.166Z,18.91
2019-05-09T10:55:51.129Z,18.74
2019-05-09T10:56:51.079Z,18.49
2019-05-09T10:57:52.640Z,18.38
2019-05-09T10:58:51.116Z,18.23
2019-05-09T10:59:50.984Z,18.11
2019-05-09T11:00:51.024Z,17.94
2019-05-09T11:01:50.914Z,17.84
2019-05-09T11:02:50.913Z,17.95
2019-05-09T11:03:50.906Z,17.89
2019-05-09T11:04:50.847Z,17.84
2019-05-09T11:05:50.819Z,17.74
2019-05-09T11:06:50.793Z,17.68
2019-05-09T11:07:50.913Z,17.66
2019-05-09T11:08:50.722Z,17.62
2019-05-09T11:09:50.745Z,17.60
2019-05-09T11:10:50.668Z,17.65
2019-05-09T11:11:50.689Z,17.70
2019-05-09T11:12:50.629Z,17.80
2019-05-09T11:13:50.666Z,17.96
2019-05-09T11:14:50.557Z,18.11
2019-05-09T11:15:50.621Z,18.19
2019-05-09T11:17:06.415Z,18.42
2019-05-09T11:17:50.468Z,18.71
2019-05-09T11:18:50.449Z,18.84
2019-05-09T11:19:50.512Z,19.02
2019-05-09T11:20:50.407Z,19.16
2019-05-09T11:21:50.429Z,19.16
2019-05-09T11:22:50.454Z,19.20
2019-05-09T11:23:50.334Z,18.96
2019-05-09T11:24:51.271Z,18.90
2019-05-09T11:25:50.349Z,18.84
2019-05-09T11:26:50.217Z,18.94
2019-05-09T11:28:06.635Z,18.82
2019-05-09T11:28:50.165Z,18.90
2019-05-09T11:29:50.180Z,18.87
2019-05-09T11:30:50.106Z,18.83
2019-05-09T11:31:50.189Z,18.78
2019-05-09T11:32:50.063Z,18.75
2019-05-09T11:33:50.095Z,18.51
2019-05-09T11:34:49.988Z,18.34
2019-05-09T11:35:49.995Z,18.29
2019-05-09T11:36:50.218Z,18.14
2019-05-09T11:37:49.898Z,18.29
2019-05-09T11:38:50.037Z,18.19
2019-05-09T11:39:49.873Z,18.11
2019-05-09T11:40:49.978Z,18.07
2019-05-09T11:41:49.822Z,18.04
2019-05-09T11:42:49.930Z,18.02
2019-05-09T11:43:49.731Z,18.11
2019-05-09T11:44:49.803Z,18.17
2019-05-09T11:45:49.694Z,18.21
2019-05-09T11:46:49.816Z,18.25
2019-05-09T11:47:49.623Z,18.26
2019-05-09T11:48:49.693Z,18.26
2019-05-09T11:49:49.569Z,18.19
2019-05-09T11:50:49.662Z,18.17
2019-05-09T11:51:49.515Z,18.21
2019-05-09T11:52:49.663Z,18.25
2019-05-09T11:53:49.473Z,18.31
2019-05-09T11:54:49.811Z,18.31
2019-05-09T11:55:49.415Z,18.36
2019-05-09T11:56:49.467Z,18.35
2019-05-09T11:57:49.360Z,18.49
2019-05-09T11:58:49.480Z,18.60
2019-05-09T11:59:49.287Z,18.53
2019-05-09T12:00:49.345Z,18.62
2019-05-09T12:01:49.265Z,18.72
2019-05-09T12:02:50.031Z,18.76
2019-05-09T12:03:52.293Z,18.71
2019-05-09T12:04:49.253Z,18.68
2019-05-09T12:05:49.121Z,18.72
2019-05-09T12:06:49.519Z,18.74
2019-05-09T12:07:49.075Z,18.56
2019-05-09T12:08:50.141Z,18.64
2019-05-09T12:09:49.075Z,18.57
2019-05-09T12:11:17.844Z,18.60
2019-05-09T12:11:48.956Z,18.59
2019-05-09T12:12:48.957Z,18.66
2019-05-09T12:13:58.116Z,18.84
2019-05-09T12:14:48.898Z,18.89
2019-05-09T12:15:58.412Z,18.89
2019-05-09T12:16:48.868Z,19.01
2019-05-09T12:18:09.137Z,19.09
2019-05-09T12:18:49.153Z,19.02
2019-05-09T12:19:49.050Z,19.13
2019-05-09T12:21:03.527Z,19.16
2019-05-09T12:21:48.696Z,19.16
2019-05-09T12:22:55.433Z,19.23
2019-05-09T12:23:49.110Z,19.24
2019-05-09T12:24:49.696Z,19.21
2019-05-09T12:25:48.575Z,19.15
2019-05-09T12:26:57.517Z,19.23
2019-05-09T12:27:48.765Z,19.20
2019-05-09T12:28:49.566Z,19.17
2019-05-09T12:29:48.513Z,19.16
2019-05-09T12:30:49.540Z,19.20
2019-05-09T12:31:48.683Z,19.10
2019-05-09T12:32:48.421Z,19.13
2019-05-09T12:33:48.704Z,19.12
2019-05-09T12:34:57.540Z,19.13
2019-05-09T12:35:48.330Z,19.35
2019-05-09T12:37:04.941Z,19.45
2019-05-09T12:37:48.521Z,19.62
2019-05-09T12:38:50.400Z,19.62
2019-05-09T12:39:48.270Z,19.72
2019-05-09T12:40:48.319Z,19.76
2019-05-09T12:41:48.584Z,19.72
2019-05-09T12:42:50.293Z,19.72
2019-05-09T12:43:48.084Z,19.65
2019-05-09T12:44:58.983Z,19.53
2019-05-09T12:45:48.003Z,19.39
2019-05-09T12:46:48.743Z,19.24
2019-05-09T12:47:47.973Z,19.23
2019-05-09T12:48:58.792Z,19.21
2019-05-09T12:49:48.792Z,19.10
2019-05-09T12:50:48.868Z,18.96
2019-05-09T12:51:47.852Z,18.97
2019-05-09T12:52:48.927Z,18.87
2019-05-09T12:53:48.577Z,18.79
2019-05-09T12:54:49.813Z,18.75
2019-05-09T12:55:47.826Z,18.59
2019-05-09T12:56:55.478Z,18.46
2019-05-09T12:57:48.885Z,18.41
2019-05-09T12:58:47.856Z,18.34
2019-05-09T12:59:52.363Z,18.20
2019-05-09T13:00:58.384Z,18.19
2019-05-09T13:01:49.281Z,18.07
2019-05-09T13:02:47.572Z,18.07
2019-05-09T13:03:48.411Z,17.99
2019-05-09T13:04:47.732Z,17.94
2019-05-09T13:05:48.610Z,17.94
2019-05-09T13:06:48.939Z,17.83
2019-05-09T13:07:48.055Z,17.92
2019-05-09T13:08:47.992Z,17.87
2019-05-09T13:09:52.696Z,17.86